createdAt,value
2018-02-04T00:00:45.271Z,11.70
2018-02-04T00:03:13.738Z,10.57
2018-02-04T00:05:43.548Z,8.37
2018-02-04T00:08:11.819Z,9.83
2018-02-04T00:10:41.429Z,11.90
2018-02-04T00:13:10.746Z,11.50
2018-02-04T00:15:39.084Z,12.40
2018-02-04T00:18:07.391Z,11.80
2018-02-04T00:20:35.820Z,6.40
2018-02-04T00:23:04.083Z,6.63
2018-02-04T00:25:35.562Z,8.37
2018-02-04T00:28:03.822Z,4.57
2018-02-04T00:30:32.881Z,5.17
2018-02-04T00:33:01.377Z,10.00
2018-02-04T00:35:30.735Z,8.20
2018-02-04T00:38:01.025Z,8.63
2018-02-04T00:40:29.468Z,12.33
2018-02-04T00:42:57.749Z,13.17
2018-02-04T00:45:26.003Z,13.63
2018-02-04T00:47:54.395Z,12.80
2018-02-04T00:50:22.659Z,13.07
2018-02-04T00:52:50.956Z,12.03
2018-02-04T00:55:19.542Z,9.40
2018-02-04T00:57:47.806Z,13.50
2018-02-04T01:00:16.093Z,11.77
2018-02-04T01:02:44.752Z,3.83
2018-02-04T01:05:13.020Z,11.03
2018-02-04T01:07:41.307Z,12.63
2018-02-04T01:10:09.611Z,12.90
2018-02-04T01:12:37.861Z,9.97
2018-02-04T01:15:06.150Z,11.57
2018-02-04T01:17:34.516Z,12.93
2018-02-04T01:20:04.307Z,11.27
2018-02-04T01:22:32.564Z,5.40
2018-02-04T01:25:00.849Z,12.13
2018-02-04T01:27:29.310Z,4.67
2018-02-04T01:29:57.635Z,9.60
2018-02-04T01:32:25.948Z,10.13
2018-02-04T01:34:54.976Z,9.80
2018-02-04T01:37:23.232Z,12.33
2018-02-04T01:39:52.575Z,7.57
2018-02-04T01:42:20.831Z,7.77
2018-02-04T01:44:49.101Z,12.73
2018-02-04T01:47:17.605Z,10.73
2018-02-04T01:49:45.884Z,7.67
2018-02-04T01:52:18.113Z,9.17
2018-02-04T01:54:46.380Z,12.97
2018-02-04T01:57:16.859Z,10.73
2018-02-04T01:59:45.155Z,12.30
2018-02-04T02:02:13.415Z,14.40
2018-02-04T02:04:41.702Z,12.73
2018-02-04T02:07:10.044Z,5.53
2018-02-04T02:09:39.972Z,13.43
2018-02-04T02:12:08.236Z,14.03
2018-02-04T02:14:36.749Z,13.97
2018-02-04T02:17:06.046Z,12.80
2018-02-04T02:19:34.560Z,9.53
2018-02-04T02:22:03.695Z,11.40
2018-02-04T02:24:31.946Z,14.00
2018-02-04T02:27:00.204Z,12.33
2018-02-04T02:32:10.661Z,16.07
2018-02-04T02:34:38.976Z,12.73
2018-02-04T02:37:07.994Z,13.87
2018-02-04T02:39:37.270Z,14.90
2018-02-04T02:42:05.709Z,11.90
2018-02-04T02:44:33.992Z,13.00
2018-02-04T02:47:02.253Z,13.33
2018-02-04T02:49:30.540Z,14.33
2018-02-04T02:51:58.803Z,12.73
2018-02-04T02:54:27.171Z,13.60
2018-02-04T02:56:55.470Z,15.17
2018-02-04T02:59:23.739Z,14.37
2018-02-04T03:01:52.002Z,13.83
2018-02-04T03:04:20.743Z,14.00
2018-02-04T03:06:49.804Z,12.97
2018-02-04T03:09:18.065Z,14.20
2018-02-04T03:11:46.364Z,14.97
2018-02-04T03:14:14.644Z,14.43
2018-02-04T03:16:44.392Z,14.53
2018-02-04T03:19:13.021Z,13.43
2018-02-04T03:21:44.262Z,13.43
2018-02-04T03:24:12.517Z,14.07
2018-02-04T03:26:40.814Z,12.70
2018-02-04T03:29:09.894Z,14.30
2018-02-04T03:31:38.145Z,11.00
2018-02-04T03:34:07.481Z,9.23
2018-02-04T03:36:35.763Z,10.37
2018-02-04T03:39:04.041Z,11.00
2018-02-04T03:41:33.543Z,9.43
2018-02-04T03:44:02.579Z,14.00
2018-02-04T03:46:31.987Z,15.20
2018-02-04T03:49:01.158Z,12.60
2018-02-04T03:51:29.419Z,13.10
2018-02-04T03:54:00.712Z,14.47
2018-02-04T03:56:29.351Z,17.20
2018-02-04T03:58:57.608Z,14.37
2018-02-04T04:01:25.872Z,13.67
2018-02-04T04:03:54.180Z,12.20
2018-02-04T04:06:23.475Z,11.57
2018-02-04T04:08:51.754Z,10.83
2018-02-04T04:11:20.780Z,10.30
2018-02-04T04:13:49.726Z,11.30
2018-02-04T04:16:17.922Z,11.17
2018-02-04T04:18:46.499Z,14.93
2018-02-04T04:21:14.777Z,11.83
2018-02-04T04:23:44.948Z,11.07
2018-02-04T04:26:13.263Z,10.57
2018-02-04T04:28:41.520Z,10.30
2018-02-04T04:31:12.807Z,11.87
2018-02-04T04:33:41.687Z,10.50
2018-02-04T04:36:09.947Z,9.33
2018-02-04T04:38:38.218Z,10.30
2018-02-04T04:41:06.543Z,10.67
2018-02-04T04:43:36.391Z,9.50
2018-02-04T04:46:04.643Z,13.13
2018-02-04T04:48:32.952Z,8.50
2018-02-04T04:51:01.237Z,9.40
2018-02-04T04:53:29.507Z,10.40
2018-02-04T04:55:59.068Z,7.33
2018-02-04T04:58:27.326Z,12.10
2018-02-04T05:00:55.581Z,8.63
2018-02-04T05:03:23.922Z,14.30
2018-02-04T05:05:52.190Z,11.27
2018-02-04T05:08:22.824Z,14.40
2018-02-04T05:10:51.153Z,18.73
2018-02-04T05:13:21.668Z,12.90
2018-02-04T05:15:49.947Z,13.53
2018-02-04T05:18:18.392Z,14.60
2018-02-04T05:20:46.659Z,16.00
2018-02-04T05:23:14.921Z,16.50
2018-02-04T05:25:44.385Z,14.87
2018-02-04T05:28:12.656Z,13.13
2018-02-04T05:30:40.929Z,16.27
2018-02-04T05:33:11.271Z,13.80
2018-02-04T05:35:39.561Z,11.73
2018-02-04T05:38:07.828Z,11.77
2018-02-04T05:40:36.206Z,14.93
2018-02-04T05:43:04.479Z,12.37
2018-02-04T05:45:34.545Z,16.63
2018-02-04T05:48:03.077Z,14.10
2018-02-04T05:50:33.610Z,12.30
2018-02-04T05:53:01.884Z,13.47
2018-02-04T05:55:30.301Z,11.30
2018-02-04T05:57:59.330Z,14.30
2018-02-04T06:00:27.617Z,12.40
2018-02-04T06:02:55.912Z,12.50
2018-02-04T06:05:24.180Z,11.47
2018-02-04T06:07:52.450Z,13.93
2018-02-04T06:10:21.457Z,12.83
2018-02-04T06:12:49.745Z,13.00
2018-02-04T06:15:18.805Z,12.43
2018-02-04T06:17:47.096Z,12.13
2018-02-04T06:20:15.372Z,13.10
2018-02-04T06:22:45.179Z,10.33
2018-02-04T06:25:13.975Z,9.30
2018-02-04T06:27:42.622Z,9.40
2018-02-04T06:30:10.890Z,8.17
2018-02-04T06:32:39.218Z,8.77
2018-02-04T06:35:08.401Z,7.70
2018-02-04T06:37:36.640Z,4.67
2018-02-04T06:40:04.944Z,6.57
2018-02-04T06:42:33.195Z,6.40
2018-02-04T06:45:01.464Z,7.70
2018-02-04T06:47:30.239Z,7.40
2018-02-04T06:49:59.259Z,6.50
2018-02-04T06:52:27.526Z,8.33
2018-02-04T06:54:56.054Z,6.17
2018-02-04T06:57:24.310Z,6.70
2018-02-04T06:59:54.914Z,6.30
2018-02-04T07:02:24.068Z,8.23
2018-02-04T07:04:52.317Z,6.80
2018-02-04T07:07:20.577Z,7.27
2018-02-04T07:09:49.083Z,4.83
2018-02-04T07:12:17.634Z,6.17
2018-02-04T07:14:45.894Z,7.20
2018-02-04T07:17:14.959Z,7.00
2018-02-04T07:19:43.229Z,6.37
2018-02-04T07:22:11.505Z,6.23
2018-02-04T07:24:39.818Z,8.17
2018-02-04T07:27:08.833Z,5.37
2018-02-04T07:29:37.935Z,5.70
2018-02-04T07:32:06.208Z,6.03
2018-02-04T07:34:34.463Z,6.43
2018-02-04T07:37:02.726Z,6.17
2018-02-04T07:39:31.890Z,6.70
2018-02-04T07:42:00.918Z,8.33
2018-02-04T07:44:29.949Z,8.53
2018-02-04T07:46:58.530Z,7.23
2018-02-04T07:49:27.845Z,7.87
2018-02-04T07:51:56.793Z,8.00
2018-02-04T07:54:26.177Z,9.50
2018-02-04T07:56:54.443Z,7.33
2018-02-04T07:59:22.703Z,8.10
2018-02-04T08:01:54.856Z,7.50
2018-02-04T08:04:23.150Z,7.90
2018-02-04T08:06:51.409Z,6.67
2018-02-04T08:09:19.849Z,10.17
2018-02-04T08:11:48.108Z,7.03
2018-02-04T08:14:17.352Z,7.63
2018-02-04T08:16:46.396Z,6.50
2018-02-04T08:19:14.661Z,6.37
2018-02-04T08:21:42.928Z,8.17
2018-02-04T08:24:11.403Z,9.60
2018-02-04T08:26:42.033Z,7.63
2018-02-04T08:29:10.295Z,8.50
2018-02-04T08:31:40.738Z,8.93
2018-02-04T08:34:09.060Z,7.87
2018-02-04T08:36:38.087Z,7.20
2018-02-04T08:39:06.504Z,8.47
2018-02-04T08:41:34.774Z,9.30
2018-02-04T08:44:03.063Z,10.50
2018-02-04T08:46:31.386Z,8.47
2018-02-04T08:48:59.643Z,5.33
2018-02-04T08:51:28.721Z,10.67
2018-02-04T08:53:58.184Z,8.97
2018-02-04T08:56:26.469Z,10.80
2018-02-04T08:58:54.736Z,9.07
2018-02-04T09:01:23.150Z,9.30
2018-02-04T09:03:51.411Z,10.90
2018-02-04T09:06:19.705Z,9.37
2018-02-04T09:08:48.007Z,9.97
2018-02-04T09:11:16.402Z,12.90
2018-02-04T09:13:44.679Z,11.67
2018-02-04T09:16:14.028Z,8.20
2018-02-04T09:18:43.031Z,11.27
2018-02-04T09:21:11.364Z,8.70
2018-02-04T09:23:39.652Z,12.53
2018-02-04T09:26:07.984Z,7.90
2018-02-04T09:28:38.558Z,8.60
2018-02-04T09:31:06.988Z,9.87
2018-02-04T09:33:36.799Z,12.00
2018-02-04T09:36:05.826Z,10.17
2018-02-04T09:38:34.133Z,9.80
2018-02-04T09:41:02.418Z,10.83
2018-02-04T09:43:31.409Z,11.13
2018-02-04T09:45:59.752Z,10.73
2018-02-04T09:48:28.033Z,11.40
2018-02-04T09:50:56.360Z,7.93
2018-02-04T09:53:25.011Z,10.67
2018-02-04T09:55:54.838Z,6.33
2018-02-04T09:58:23.101Z,10.37
2018-02-04T10:00:51.589Z,10.07
2018-02-04T10:03:19.865Z,6.07
2018-02-04T10:05:48.902Z,11.87
2018-02-04T10:08:17.959Z,10.47
2018-02-04T10:10:46.264Z,6.67
2018-02-04T10:13:15.308Z,12.97
2018-02-04T10:15:43.616Z,6.10
2018-02-04T10:18:14.403Z,8.60
2018-02-04T10:20:42.694Z,12.73
2018-02-04T10:23:11.193Z,9.73
2018-02-04T10:25:39.472Z,5.30
2018-02-04T10:28:07.758Z,7.90
2018-02-04T10:30:38.092Z,8.10
2018-02-04T10:33:06.360Z,9.20
2018-02-04T10:35:34.887Z,7.63
2018-02-04T10:38:03.174Z,9.10
2018-02-04T10:40:31.440Z,10.17
2018-02-04T10:43:00.474Z,6.97
2018-02-04T10:45:28.898Z,10.00
2018-02-04T10:47:57.993Z,10.23
2018-02-04T10:50:26.269Z,9.70
2018-02-04T10:52:54.572Z,9.90
2018-02-04T10:55:23.312Z,8.60
2018-02-04T10:57:51.579Z,11.37
2018-02-04T11:00:19.889Z,8.50
2018-02-04T11:02:48.907Z,9.90
2018-02-04T11:05:17.171Z,9.57
2018-02-04T11:07:48.253Z,8.77
2018-02-04T11:10:16.532Z,11.77
2018-02-04T11:12:44.798Z,10.70
2018-02-04T11:15:13.281Z,10.10
2018-02-04T11:17:41.556Z,10.53
2018-02-04T11:20:11.051Z,6.20
2018-02-04T11:22:39.444Z,9.90
2018-02-04T11:25:07.704Z,9.80
2018-02-04T11:27:35.969Z,8.83
2018-02-04T11:30:05.306Z,9.80
2018-02-04T11:32:33.577Z,10.27
2018-02-04T11:35:01.854Z,6.63
2018-02-04T11:37:30.558Z,7.77
2018-02-04T11:39:58.832Z,8.17
2018-02-04T11:42:27.089Z,8.60
2018-02-04T11:44:56.175Z,11.20
2018-02-04T11:47:24.462Z,8.30
2018-02-04T11:49:52.724Z,10.20
2018-02-04T11:52:21.043Z,11.93
2018-02-04T11:54:50.078Z,8.53
2018-02-04T11:57:19.673Z,6.70
2018-02-04T11:59:48.729Z,8.97
2018-02-04T12:02:17.015Z,9.37
2018-02-04T12:04:46.073Z,10.60
2018-02-04T12:07:15.739Z,8.30
2018-02-04T12:09:45.570Z,8.17
2018-02-04T12:12:14.540Z,8.27
2018-02-04T12:14:43.595Z,9.07
2018-02-04T12:17:11.857Z,10.60
2018-02-04T12:19:40.133Z,7.20
2018-02-04T12:22:11.790Z,9.57
2018-02-04T12:24:40.081Z,9.83
2018-02-04T12:27:09.265Z,8.43
2018-02-04T12:29:37.856Z,9.87
2018-02-04T12:32:06.147Z,8.93
2018-02-04T12:34:35.195Z,10.60
2018-02-04T12:37:03.784Z,11.20
2018-02-04T12:39:33.498Z,10.93
2018-02-04T12:42:01.790Z,8.87
2018-02-04T12:44:30.113Z,11.23
2018-02-04T12:46:59.949Z,12.00
2018-02-04T12:49:28.985Z,12.90
2018-02-04T12:51:57.464Z,10.43
2018-02-04T12:54:25.745Z,14.77
2018-02-04T12:56:54.019Z,11.63
2018-02-04T12:59:26.227Z,10.63
2018-02-04T13:01:54.513Z,9.77
2018-02-04T13:04:22.781Z,11.00
2018-02-04T13:06:51.081Z,10.30
2018-02-04T13:09:19.359Z,11.20
2018-02-04T13:11:48.405Z,9.80
2018-02-04T13:14:17.656Z,11.77
2018-02-04T13:16:45.944Z,10.77
2018-02-04T13:19:14.235Z,11.13
2018-02-04T13:21:43.182Z,10.00
2018-02-04T13:24:11.676Z,9.93
2018-02-04T13:26:41.543Z,9.87
2018-02-04T13:29:10.923Z,10.70
2018-02-04T13:31:39.190Z,12.63
2018-02-04T13:34:07.469Z,9.47
2018-02-04T13:36:38.929Z,10.43
2018-02-04T13:39:07.908Z,8.93
2018-02-04T13:41:37.615Z,12.03
2018-02-04T13:44:05.907Z,11.50
2018-02-04T13:46:34.208Z,7.27
2018-02-04T13:49:02.471Z,10.20
2018-02-04T13:51:30.958Z,8.80
2018-02-04T13:54:00.003Z,8.80
2018-02-04T13:56:28.262Z,10.40
2018-02-04T13:58:56.561Z,9.93
2018-02-04T14:01:25.845Z,8.73
2018-02-04T14:03:54.832Z,9.80
2018-02-04T14:06:23.130Z,7.67
2018-02-04T14:08:51.391Z,8.97
2018-02-04T14:11:19.662Z,9.73
2018-02-04T14:13:50.140Z,7.43
2018-02-04T14:16:19.132Z,9.80
2018-02-04T14:18:47.392Z,9.27
2018-02-04T14:21:15.873Z,6.63
2018-02-04T14:23:44.912Z,7.20
2018-02-04T14:26:16.441Z,8.90
2018-02-04T14:28:44.701Z,9.33
2018-02-04T14:31:12.972Z,8.27
2018-02-04T14:33:41.571Z,8.07
2018-02-04T14:36:09.933Z,7.30
2018-02-04T14:38:38.210Z,6.97
2018-02-04T14:41:06.501Z,7.93
2018-02-04T14:43:35.929Z,8.83
2018-02-04T14:46:05.146Z,9.90
2018-02-04T14:48:33.613Z,8.40
2018-02-04T14:51:02.661Z,7.93
2018-02-04T14:53:31.648Z,7.40
2018-02-04T14:56:00.124Z,8.67
2018-02-04T14:58:28.386Z,6.30
2018-02-04T15:00:56.646Z,7.80
2018-02-04T15:03:26.720Z,10.07
2018-02-04T15:05:55.022Z,7.60
2018-02-04T15:08:23.308Z,10.30
2018-02-04T15:10:52.368Z,10.30
2018-02-04T15:13:20.716Z,8.10
2018-02-04T15:15:48.980Z,9.00
2018-02-04T15:18:18.228Z,9.00
2018-02-04T15:20:46.498Z,7.83
2018-02-04T15:23:14.770Z,7.93
2018-02-04T15:25:43.067Z,9.10
2018-02-04T15:28:13.838Z,9.00
2018-02-04T15:30:42.103Z,7.67
2018-02-04T15:33:10.641Z,10.57
2018-02-04T15:35:38.913Z,9.30
2018-02-04T15:38:07.180Z,10.30
2018-02-04T15:40:35.715Z,9.57
2018-02-04T15:43:05.460Z,9.07
2018-02-04T15:45:33.990Z,10.40
2018-02-04T15:48:02.327Z,10.43
2018-02-04T15:50:31.380Z,7.90
2018-02-04T15:53:01.926Z,10.43
2018-02-04T15:55:30.681Z,10.10
2018-02-04T15:57:59.730Z,9.37
2018-02-04T16:00:28.030Z,10.57
2018-02-04T16:02:56.612Z,7.80
2018-02-04T16:05:29.149Z,7.83
2018-02-04T16:07:58.269Z,8.73
2018-02-04T16:10:26.534Z,7.47
2018-02-04T16:12:54.841Z,10.13
2018-02-04T16:15:23.430Z,8.23
2018-02-04T16:17:53.996Z,8.10
2018-02-04T16:20:22.270Z,7.87
2018-02-04T16:22:50.565Z,6.33
2018-02-04T16:25:18.843Z,8.83
2018-02-04T16:27:47.115Z,9.37
2018-02-04T16:30:16.421Z,8.13
2018-02-04T16:32:44.680Z,7.70
2018-02-04T16:35:12.952Z,8.37
2018-02-04T16:37:41.390Z,6.60
2018-02-04T16:40:09.649Z,9.60
2018-02-04T16:42:38.725Z,7.67
2018-02-04T16:45:09.399Z,7.97
2018-02-04T16:47:38.532Z,7.90
2018-02-04T16:50:06.809Z,7.40
2018-02-04T16:52:35.122Z,9.20
2018-02-04T16:55:04.182Z,6.80
2018-02-04T16:57:32.465Z,9.63
2018-02-04T17:00:00.989Z,8.00
2018-02-04T17:02:29.268Z,9.00
2018-02-04T17:04:57.596Z,9.10
2018-02-04T17:07:28.991Z,8.00
2018-02-04T17:09:57.267Z,7.87
2018-02-04T17:12:25.640Z,8.77
2018-02-04T17:14:54.069Z,9.57
2018-02-04T17:17:22.334Z,7.57
2018-02-04T17:19:51.489Z,8.30
2018-02-04T17:22:19.768Z,6.83
2018-02-04T17:24:49.064Z,7.43
2018-02-04T17:27:17.349Z,7.00
2018-02-04T17:29:46.044Z,9.03
2018-02-04T17:32:16.265Z,7.00
2018-02-04T17:34:44.563Z,7.40
2018-02-04T17:37:13.626Z,8.50
2018-02-04T17:39:41.898Z,5.20
2018-02-04T17:42:10.213Z,6.17
2018-02-04T17:44:39.694Z,8.07
2018-02-04T17:47:07.976Z,8.50
2018-02-04T17:49:36.742Z,8.30
2018-02-04T17:52:05.055Z,10.00
2018-02-04T17:54:33.320Z,7.27
2018-02-04T17:57:04.595Z,9.93
2018-02-04T17:59:34.478Z,8.47
2018-02-04T18:02:02.774Z,7.47
2018-02-04T18:04:31.807Z,10.10
2018-02-04T18:07:00.377Z,8.73
2018-02-04T18:09:30.323Z,9.50
2018-02-04T18:11:58.619Z,10.63
2018-02-04T18:14:27.099Z,9.10
2018-02-04T18:16:55.375Z,8.23
2018-02-04T18:19:23.673Z,9.03
2018-02-04T18:21:52.139Z,6.57
2018-02-04T18:24:20.410Z,8.67
2018-02-04T18:26:48.669Z,8.07
2018-02-04T18:29:17.272Z,7.67
2018-02-04T18:31:45.548Z,7.57
2018-02-04T18:34:17.065Z,9.77
2018-02-04T18:36:45.359Z,9.17
2018-02-04T18:39:13.619Z,7.90
2018-02-04T18:41:41.889Z,6.87
2018-02-04T18:44:10.413Z,8.83
2018-02-04T18:46:38.685Z,9.23
2018-02-04T18:49:06.958Z,6.70
2018-02-04T18:51:36.057Z,8.10
2018-02-04T18:54:04.312Z,6.33
2018-02-04T18:56:32.596Z,7.23
2018-02-04T18:59:04.057Z,8.23
2018-02-04T19:01:32.325Z,6.97
2018-02-04T19:04:00.618Z,6.20
2018-02-04T19:06:30.137Z,9.60
2018-02-04T19:08:59.191Z,6.27
2018-02-04T19:11:30.613Z,8.80
2018-02-04T19:13:59.136Z,7.63
2018-02-04T19:16:27.422Z,9.03
2018-02-04T19:18:55.702Z,9.33
2018-02-04T19:21:24.328Z,7.07
2018-02-04T19:23:52.598Z,7.10
2018-02-04T19:26:20.868Z,6.90
2018-02-04T19:28:50.062Z,7.90
2018-02-04T19:31:19.099Z,8.00
2018-02-04T19:33:47.401Z,8.87
2018-02-04T19:36:17.074Z,10.50
2018-02-04T19:38:45.327Z,7.93
2018-02-04T19:41:13.619Z,8.83
2018-02-04T19:43:41.894Z,8.00
2018-02-04T19:46:10.932Z,7.30
2018-02-04T19:48:39.204Z,9.43
2018-02-04T19:51:07.645Z,7.87
2018-02-04T19:53:36.285Z,8.70
2018-02-04T19:56:04.600Z,7.53
2018-02-04T19:58:33.048Z,9.00
2018-02-04T20:01:02.116Z,5.73
2018-02-04T20:03:30.392Z,10.20
2018-02-04T20:05:58.708Z,7.03
2018-02-04T20:08:27.745Z,8.23
2018-02-04T20:10:56.017Z,9.57
2018-02-04T20:13:25.381Z,9.03
2018-02-04T20:15:54.410Z,7.70
2018-02-04T20:18:22.679Z,7.87
2018-02-04T20:20:51.080Z,7.50
2018-02-04T20:23:19.342Z,6.17
2018-02-04T20:25:49.114Z,6.93
2018-02-04T20:28:18.341Z,7.00
2018-02-04T20:30:46.605Z,8.60
2018-02-04T20:33:20.879Z,8.97
2018-02-04T20:35:49.166Z,8.60
2018-02-04T20:38:20.075Z,7.90
2018-02-04T20:40:48.463Z,6.23
2018-02-04T20:43:16.749Z,6.60
2018-02-04T20:45:45.019Z,8.83
2018-02-04T20:48:13.512Z,8.57
2018-02-04T20:50:42.585Z,9.17
2018-02-04T20:53:10.869Z,8.40
2018-02-04T20:55:39.790Z,9.50
2018-02-04T20:58:08.821Z,8.73
2018-02-04T21:00:37.129Z,9.27
2018-02-04T21:03:06.993Z,8.63
2018-02-04T21:05:35.273Z,8.27
2018-02-04T21:08:03.559Z,10.90
2018-02-04T21:10:32.073Z,9.70
2018-02-04T21:13:00.353Z,7.27
2018-02-04T21:15:31.876Z,11.20
2018-02-04T21:18:00.423Z,7.93
2018-02-04T21:20:29.457Z,9.30
2018-02-04T21:22:57.775Z,8.20
2018-02-04T21:25:26.067Z,6.87
2018-02-04T21:27:55.098Z,8.87
2018-02-04T21:30:23.364Z,11.03
2018-02-04T21:32:52.125Z,8.67
2018-02-04T21:35:21.170Z,9.07
2018-02-04T21:37:49.439Z,7.33
2018-02-04T21:40:21.009Z,7.10
2018-02-04T21:42:49.303Z,7.17
2018-02-04T21:45:17.575Z,8.67
2018-02-04T21:47:45.862Z,8.73
2018-02-04T21:50:14.143Z,5.30
2018-02-04T21:52:43.172Z,8.27
2018-02-04T21:55:11.473Z,6.90
2018-02-04T21:57:41.461Z,6.20
2018-02-04T22:00:09.750Z,10.23
2018-02-04T22:02:41.345Z,9.30
2018-02-04T22:05:13.779Z,9.93
2018-02-04T22:07:42.496Z,8.00
2018-02-04T22:10:10.844Z,7.73
2018-02-04T22:12:39.555Z,8.17
2018-02-04T22:15:07.842Z,6.97
2018-02-04T22:17:36.192Z,7.20
2018-02-04T22:20:08.211Z,8.27
2018-02-04T22:22:37.244Z,5.87
2018-02-04T22:25:06.068Z,6.13
2018-02-04T22:27:34.349Z,6.80
2018-02-04T22:30:09.787Z,7.83
2018-02-04T22:32:38.946Z,9.10
2018-02-04T22:35:07.712Z,5.80
2018-02-04T22:37:36.728Z,6.97
2018-02-04T22:40:05.007Z,5.13
2018-02-04T22:42:33.520Z,9.50
2018-02-04T22:45:01.889Z,6.83
2018-02-04T22:47:30.140Z,7.43
2018-02-04T22:49:58.411Z,7.70
2018-02-04T22:52:26.824Z,6.77
2018-02-04T22:54:55.320Z,6.30
2018-02-04T22:57:23.657Z,6.90
2018-02-04T22:59:51.931Z,6.77
2018-02-04T23:02:20.208Z,9.73
2018-02-04T23:04:48.576Z,6.03
2018-02-04T23:07:16.839Z,6.43
2018-02-04T23:09:45.254Z,6.47
2018-02-04T23:12:13.634Z,8.33
2018-02-04T23:14:41.915Z,7.13
2018-02-04T23:17:10.233Z,4.97
2018-02-04T23:19:38.498Z,7.87
2018-02-04T23:22:06.844Z,8.57
2018-02-04T23:24:35.152Z,7.77
2018-02-04T23:27:03.523Z,9.03
2018-02-04T23:29:31.828Z,9.30
2018-02-04T23:32:00.854Z,8.17
2018-02-04T23:34:29.171Z,6.10
2018-02-04T23:36:57.446Z,8.17
2018-02-04T23:39:25.718Z,8.47
2018-02-04T23:41:54.061Z,8.43
2018-02-04T23:44:22.338Z,7.23
2018-02-04T23:46:50.753Z,7.90
2018-02-04T23:49:19.016Z,6.50
2018-02-04T23:51:48.097Z,9.87
2018-02-04T23:54:16.363Z,9.83
2018-02-04T23:56:44.669Z,8.70
2018-02-04T23:59:12.942Z,9.03
